Time;durP1;ratioP1;P1;durP2;ratioP2;P2;SDS_P1;SDS_P2;PMS_P1;PMS_P2;Temp;Humidity;BMP_temperature;BMP_pressure;BME280_temperature;BME280_humidity;BME280_pressure;Samples;Min_cycle;Max_cycle;Signal;HPM_P1;HPM_P2
2022/05/25 00:01:39;;;;;;;5.40;1.48;;;15.90;1.00;;;;;;4991836;28;20418;-58
2022/05/25 00:04:06;;;;;;;5.70;1.80;;;15.90;99.90;;;;;;4990808;28;20409;-58
2022/05/25 00:06:32;;;;;;;6.00;1.30;;;15.90;99.90;;;;;;4991739;28;20398;-58
2022/05/25 00:08:58;;;;;;;4.57;1.30;;;15.90;99.90;;;;;;4992040;28;20512;-57
2022/05/25 00:11:24;;;;;;;5.10;1.30;;;15.90;1.00;;;;;;4972807;28;20468;-58
2022/05/25 00:13:50;;;;;;;5.28;1.35;;;15.80;34.90;;;;;;4972195;28;20766;-57
2022/05/25 00:16:16;;;;;;;5.27;1.40;;;15.80;99.90;;;;;;4970735;28;20519;-58
2022/05/25 00:19:59;;;;;;;5.47;1.50;;;15.80;99.90;;;;;;4972106;28;21077;-58
2022/05/25 00:21:29;;;;;;;6.03;1.53;;;15.70;99.90;;;;;;4971472;28;20493;-58
2022/05/25 00:23:55;;;;;;;4.80;1.60;;;15.80;40.70;;;;;;4972269;28;20418;-57
2022/05/25 00:26:20;;;;;;;5.60;1.40;;;15.80;45.10;;;;;;4971452;28;20388;-57
2022/05/25 00:28:46;;;;;;;5.00;1.55;;;15.70;99.90;;;;;;4972108;28;20468;-58
2022/05/25 00:31:12;;;;;;;6.10;1.40;;;15.80;99.90;;;;;;4971416;28;20415;-57
2022/05/25 00:33:38;;;;;;;6.53;1.90;;;15.80;99.90;;;;;;4971948;28;20841;-58
2022/05/25 00:36:04;;;;;;;5.40;1.60;;;15.70;1.00;;;;;;4971489;28;20500;-57
2022/05/25 00:38:30;;;;;;;5.30;1.60;;;15.70;99.90;;;;;;4971879;28;20442;-57
2022/05/25 00:40:57;;;;;;;5.60;1.60;;;15.70;99.90;;;;;;4972242;28;20400;-57
2022/05/25 00:43:23;;;;;;;4.85;1.40;;;15.70;99.90;;;;;;4971278;28;20515;-58
2022/05/25 00:45:55;;;;;;;5.23;1.57;;;15.60;1.00;;;;;;4971982;28;20483;-57
2022/05/25 00:48:30;;;;;;;6.90;1.50;;;15.60;99.90;;;;;;4971132;28;20688;-59
2022/05/25 00:51:12;;;;;;;4.60;1.50;;;15.60;35.10;;;;;;4972144;28;20447;-57
2022/05/25 00:53:39;;;;;;;6.05;1.48;;;15.60;1.00;;;;;;4971885;28;20415;-57
2022/05/25 00:56:08;;;;;;;5.13;1.40;;;15.60;1.00;;;;;;4970531;28;20471;-58
2022/05/25 00:58:36;;;;;;;5.60;1.40;;;15.60;1.00;;;;;;4972078;28;20383;-57
2022/05/25 01:01:03;;;;;;;5.35;1.50;;;15.60;99.90;;;;;;4970719;28;20423;-55
2022/05/25 01:03:28;;;;;;;5.32;1.50;;;15.50;99.90;;;;;;4970680;28;20894;-58
2022/05/25 01:06:30;;;;;;;4.90;1.50;;;15.60;99.90;;;;;;4971526;28;20487;-58
2022/05/25 01:09:12;;;;;;;5.85;1.30;;;15.60;99.90;;;;;;4953050;28;20428;-57
2022/05/25 01:11:56;;;;;;;4.55;1.10;;;15.40;99.90;;;;;;4968878;28;20496;-58
2022/05/25 01:14:48;;;;;;;5.40;1.20;;;15.40;1.00;;;;;;4971107;28;20384;-58
2022/05/25 01:17:21;;;;;;;5.43;1.60;;;15.30;1.00;;;;;;4970290;28;20403;-58
2022/05/25 01:20:02;;;;;;;4.80;1.30;;;15.20;99.90;;;;;;4970971;28;20400;-58
2022/05/25 01:22:33;;;;;;;5.30;1.30;;;15.20;1.00;;;;;;4970341;28;20465;-57
2022/05/25 01:25:23;;;;;;;5.28;1.40;;;15.20;1.00;;;;;;4971307;28;20490;-58
2022/05/25 01:27:50;;;;;;;6.00;1.17;;;15.20;1.00;;;;;;4971679;28;20397;-58
2022/05/25 01:30:31;;;;;;;4.30;1.13;;;15.30;1.00;;;;;;4970224;28;20400;-58
2022/05/25 01:33:08;;;;;;;7.40;1.30;;;15.20;1.00;;;;;;4968002;28;20408;-58
2022/05/25 01:35:53;;;;;;;6.20;1.40;;;15.20;1.00;;;;;;4971415;28;20438;-58
2022/05/25 01:38:45;;;;;;;4.32;1.02;;;15.10;1.00;;;;;;4970243;28;20417;-57
2022/05/25 01:41:27;;;;;;;4.93;1.30;;;15.10;1.00;;;;;;4970009;28;20435;-57
2022/05/25 01:44:05;;;;;;;5.63;1.45;;;15.10;1.00;;;;;;4970903;28;20404;-57
2022/05/25 01:46:46;;;;;;;4.85;1.20;;;15.10;1.00;;;;;;4970675;28;20410;-57
2022/05/25 01:49:18;;;;;;;6.45;1.20;;;15.10;1.00;;;;;;4970273;28;20414;-58
2022/05/25 01:51:55;;;;;;;5.45;1.13;;;15.20;1.00;;;;;;4970999;28;20497;-57
2022/05/25 01:54:24;;;;;;;5.47;1.40;;;15.30;1.00;;;;;;4969650;28;20400;-57
2022/05/25 01:56:54;;;;;;;5.30;1.30;;;15.20;1.00;;;;;;4970708;28;20400;-57
2022/05/25 01:59:21;;;;;;;4.80;1.50;;;15.20;1.00;;;;;;4952971;28;20388;-58
2022/05/25 02:04:46;;;;;;;6.20;1.20;;;15.10;1.00;;;;;;4970441;28;21132;-57
2022/05/25 02:07:48;;;;;;;4.60;1.20;;;14.80;1.00;;;;;;4969956;28;20415;-58
2022/05/25 02:10:46;;;;;;;5.60;1.25;;;14.80;1.00;;;;;;4978011;28;20454;-58
2022/05/25 02:13:38;;;;;;;4.90;1.20;;;14.80;1.00;;;;;;4989141;28;20526;-59
2022/05/25 02:16:04;;;;;;;5.53;1.35;;;14.80;99.90;;;;;;4978346;28;20404;-54
2022/05/25 02:18:46;;;;;;;5.30;1.30;;;14.40;99.90;;;;;;4994018;28;20923;-57
2022/05/25 02:21:23;;;;;;;5.40;1.40;;;14.70;1.00;;;;;;4992812;28;20526;-58
2022/05/25 02:24:00;;;;;;;4.88;1.30;;;14.70;1.00;;;;;;4994251;28;20431;-57
2022/05/25 02:26:33;;;;;;;5.82;1.27;;;14.60;1.00;;;;;;4990627;28;20444;-58
2022/05/25 02:29:10;;;;;;;5.15;1.35;;;14.60;99.90;;;;;;4994407;28;20537;-58
2022/05/25 02:31:42;;;;;;;5.93;1.35;;;14.60;1.00;;;;;;4993527;28;20441;-57
2022/05/25 02:34:10;;;;;;;5.00;1.20;;;14.60;1.00;;;;;;4973462;28;20422;-57
2022/05/25 02:36:37;;;;;;;4.30;1.10;;;14.70;1.00;;;;;;4993665;28;20506;-58
2022/05/25 02:39:06;;;;;;;5.00;1.30;;;14.70;1.00;;;;;;4993471;28;20398;-54
2022/05/25 02:41:34;;;;;;;4.90;1.48;;;14.60;1.00;;;;;;4993307;28;20425;-58
2022/05/25 02:44:01;;;;;;;4.90;1.30;;;14.60;99.90;;;;;;4993329;28;20424;-57
2022/05/25 02:46:27;;;;;;;7.90;1.70;;;14.70;99.90;;;;;;4993131;28;20398;-58
2022/05/25 02:48:53;;;;;;;6.20;1.50;;;14.60;1.00;;;;;;4993737;28;20374;-58
2022/05/25 02:51:19;;;;;;;5.63;1.50;;;14.50;86.80;;;;;;4992765;28;20876;-58
2022/05/25 02:53:45;;;;;;;4.72;1.23;;;14.50;99.90;;;;;;4993360;28;20412;-58
2022/05/25 02:56:11;;;;;;;5.23;1.50;;;14.40;1.00;;;;;;4992528;28;20386;-58
2022/05/25 02:58:42;;;;;;;5.28;1.35;;;14.30;99.90;;;;;;4993163;28;20748;-58
2022/05/25 03:01:08;;;;;;;4.80;1.23;;;14.30;1.00;;;;;;4991522;28;20429;-56
2022/05/25 03:03:35;;;;;;;4.70;1.20;;;14.30;99.90;;;;;;4993198;28;20485;-56
2022/05/25 03:06:02;;;;;;;4.80;1.30;;;14.30;99.90;;;;;;4993630;28;20454;-57
2022/05/25 03:08:28;;;;;;;4.53;1.20;;;14.20;1.00;;;;;;4992162;28;20469;-56
2022/05/25 03:10:54;;;;;;;5.13;1.17;;;14.20;1.00;;;;;;4992900;28;20816;-58
2022/05/25 03:13:19;;;;;;;5.80;1.20;;;14.20;99.90;;;;;;4992269;28;20399;-57
2022/05/25 03:15:45;;;;;;;4.50;1.10;;;14.20;1.00;;;;;;4992748;28;20461;-57
2022/05/25 03:18:11;;;;;;;6.30;1.10;;;14.40;1.00;;;;;;4991967;28;20401;-57
2022/05/25 03:20:37;;;;;;;4.35;1.10;;;14.30;1.00;;;;;;4993213;28;20470;-57
2022/05/25 03:23:03;;;;;;;5.60;1.20;;;14.40;1.00;;;;;;4992374;28;20886;-55
2022/05/25 03:25:30;;;;;;;5.70;1.30;;;14.40;1.00;;;;;;4992039;28;20763;-57
2022/05/25 03:27:55;;;;;;;5.85;1.30;;;14.40;1.00;;;;;;4992678;28;20445;-58
2022/05/25 03:30:22;;;;;;;5.20;1.20;;;14.50;1.00;;;;;;4992285;28;20417;-57
2022/05/25 03:32:48;;;;;;;4.90;1.10;;;14.40;1.00;;;;;;4992218;28;20406;-58
2022/05/25 03:35:14;;;;;;;5.25;1.10;;;14.40;1.00;;;;;;4991780;28;20387;-57
2022/05/25 03:37:40;;;;;;;4.95;1.10;;;14.40;1.00;;;;;;4992696;28;20477;-58
2022/05/25 03:40:09;;;;;;;6.10;1.60;;;14.50;1.00;;;;;;4991666;28;20407;-55
2022/05/25 03:42:37;;;;;;;5.90;1.20;;;14.40;1.00;;;;;;4992080;28;20429;-57
2022/05/25 03:45:04;;;;;;;5.80;1.10;;;14.40;1.00;;;;;;4992536;28;20387;-56
2022/05/25 03:47:31;;;;;;;5.45;1.20;;;14.30;1.00;;;;;;4991554;28;20764;-57
2022/05/25 03:49:56;;;;;;;5.50;1.10;;;14.30;1.00;;;;;;4992463;28;20566;-58
2022/05/25 03:52:23;;;;;;;5.47;1.38;;;14.40;1.00;;;;;;4991536;28;20829;-57
2022/05/25 03:54:50;;;;;;;7.40;1.08;;;14.30;1.00;;;;;;4992250;28;20434;-58
2022/05/25 03:57:15;;;;;;;5.53;1.60;;;14.40;99.90;;;;;;4991182;28;20433;-57
2022/05/25 03:59:41;;;;;;;7.50;1.90;;;14.40;99.90;;;;;;4992262;28;20434;-57
2022/05/25 04:02:07;;;;;;;4.60;1.20;;;14.40;99.90;;;;;;4991408;28;20422;-54
2022/05/25 04:04:33;;;;;;;4.73;1.13;;;14.30;99.90;;;;;;4992348;28;20402;-57
2022/05/25 04:06:58;;;;;;;4.80;1.40;;;14.30;1.00;;;;;;4991698;28;20399;-57
2022/05/25 04:09:24;;;;;;;5.03;1.27;;;14.30;99.90;;;;;;4991352;28;20888;-58
2022/05/25 04:11:50;;;;;;;5.47;1.30;;;14.30;99.90;;;;;;4991735;28;20402;-56
2022/05/25 04:14:16;;;;;;;6.60;1.50;;;14.30;99.90;;;;;;4991319;28;20406;-58
2022/05/25 04:16:43;;;;;;;5.20;1.40;;;14.40;1.00;;;;;;4991446;28;20398;-57
2022/05/25 04:19:09;;;;;;;4.70;1.30;;;14.40;1.00;;;;;;4990579;28;20391;-57
2022/05/25 04:21:34;;;;;;;5.20;1.30;;;14.30;1.00;;;;;;4991357;28;20426;-57
2022/05/25 04:24:01;;;;;;;5.50;1.80;;;14.20;1.00;;;;;;4991503;28;20803;-57
2022/05/25 04:26:28;;;;;;;6.70;1.70;;;14.10;1.00;;;;;;4990881;28;20395;-57
2022/05/25 04:28:54;;;;;;;6.40;1.73;;;14.10;1.00;;;;;;4991963;28;20383;-58
2022/05/25 04:31:20;;;;;;;5.53;1.50;;;14.20;1.00;;;;;;4990893;28;20403;-57
2022/05/25 04:33:45;;;;;;;6.55;1.70;;;14.10;99.90;;;;;;4991333;28;20397;-58
2022/05/25 04:36:11;;;;;;;6.60;1.50;;;14.10;37.30;;;;;;4990171;28;20888;-57
2022/05/25 04:38:37;;;;;;;5.60;1.50;;;14.10;2.80;;;;;;4990624;28;20434;-57
2022/05/25 04:41:03;;;;;;;6.13;1.80;;;14.30;1.00;;;;;;4991154;28;20931;-58
2022/05/25 04:43:29;;;;;;;6.88;1.60;;;14.50;1.00;;;;;;4990792;28;21195;-58
2022/05/25 04:45:55;;;;;;;5.20;1.30;;;14.60;1.00;;;;;;4991413;28;20394;-57
2022/05/25 04:48:25;;;;;;;5.30;1.20;;;14.60;99.90;;;;;;4990512;28;20942;-57
2022/05/25 04:50:53;;;;;;;6.47;1.10;;;14.60;99.90;;;;;;4991441;28;20405;-58
2022/05/25 04:53:20;;;;;;;5.53;1.20;;;14.60;99.90;;;;;;4990410;28;20403;-58
2022/05/25 04:58:36;;;;;;;5.88;1.40;;;13.20;99.90;;;;;;4989663;28;20468;-58
2022/05/25 05:01:03;;;;;;;5.80;1.20;;;14.60;99.90;;;;;;4982305;28;20398;-57
2022/05/25 05:03:29;;;;;;;4.90;1.40;;;14.70;99.90;;;;;;4990655;28;20517;-59
2022/05/25 05:05:56;;;;;;;7.70;1.20;;;14.60;99.90;;;;;;4971506;28;20483;-57
2022/05/25 05:08:22;;;;;;;6.80;1.40;;;14.70;99.90;;;;;;4987060;28;20477;-58
2022/05/25 05:10:49;;;;;;;6.73;1.40;;;14.70;99.90;;;;;;4990471;28;20442;-57
2022/05/25 05:13:15;;;;;;;5.65;1.20;;;14.80;99.90;;;;;;4989988;28;20721;-57
2022/05/25 05:15:48;;;;;;;7.60;1.92;;;14.80;99.90;;;;;;4990767;28;20385;-57
2022/05/25 05:18:15;;;;;;;5.43;1.50;;;15.00;99.90;;;;;;4989796;28;20477;-57
2022/05/25 05:20:41;;;;;;;5.80;1.77;;;15.50;99.90;;;;;;4991206;28;20405;-57
2022/05/25 05:23:07;;;;;;;8.60;1.35;;;16.30;45.30;;;;;;4989877;28;20824;-52
2022/05/25 05:25:34;;;;;;;5.18;1.27;;;17.10;1.00;;;;;;4989935;28;20428;-55
2022/05/25 05:28:10;;;;;;;5.95;1.20;;;17.70;1.00;;;;;;4990388;28;20387;-55
2022/05/25 05:30:39;;;;;;;4.95;1.20;;;17.60;1.00;;;;;;4990628;28;20386;-57
2022/05/25 05:33:05;;;;;;;5.90;1.50;;;17.50;1.00;;;;;;4990155;28;20936;-54
2022/05/25 05:35:32;;;;;;;6.10;1.20;;;17.30;1.00;;;;;;4988765;28;20489;-55
2022/05/25 05:37:58;;;;;;;6.05;1.20;;;16.90;1.00;;;;;;4989566;28;20414;-56
2022/05/25 05:40:25;;;;;;;6.55;1.27;;;17.90;1.00;;;;;;4988228;28;20391;-55
2022/05/25 05:42:53;;;;;;;5.90;1.60;;;19.10;1.00;;;;;;4990479;28;20414;-55
2022/05/25 05:45:23;;;;;;;8.23;1.90;;;19.50;99.90;;;;;;4990001;28;20399;-56
2022/05/25 05:47:56;;;;;;;5.30;1.50;;;20.30;99.90;;;;;;4990901;28;20554;-58
2022/05/25 05:50:23;;;;;;;5.03;1.40;;;20.80;99.90;;;;;;4989661;28;20386;-55
2022/05/25 05:52:50;;;;;;;5.40;1.30;;;19.80;99.90;;;;;;4990626;28;20386;-55
2022/05/25 05:55:17;;;;;;;6.03;1.42;;;18.70;99.90;;;;;;4989550;28;20938;-55
2022/05/25 05:57:43;;;;;;;5.10;1.20;;;18.20;99.90;;;;;;4990270;28;20454;-55
2022/05/25 06:00:10;;;;;;;5.50;1.30;;;18.30;99.90;;;;;;4989769;28;20425;-52
2022/05/25 06:02:36;;;;;;;6.00;1.10;;;19.40;99.90;;;;;;4990556;28;20414;-58
2022/05/25 06:05:01;;;;;;;5.20;1.20;;;20.60;99.90;;;;;;4982146;28;20489;-58
2022/05/25 06:07:27;;;;;;;5.13;1.20;;;21.40;99.90;;;;;;4989997;28;20473;-59
2022/05/25 06:09:53;;;;;;;5.00;1.30;;;;;;;;;;4989891;28;20450;-59
2022/05/25 06:12:19;;;;;;;5.80;1.60;;;22.50;1.00;;;;;;4989562;28;20868;-56
2022/05/25 06:14:44;;;;;;;7.10;1.60;;;22.90;99.90;;;;;;4990300;28;20390;-55
2022/05/25 06:19:54;;;;;;;6.15;1.67;;;23.10;99.90;;;;;;4989945;28;20755;-56
2022/05/25 06:22:20;;;;;;;7.28;2.40;;;24.00;99.90;;;;;;4989081;28;20415;-55
2022/05/25 06:24:49;;;;;;;6.57;2.10;;;24.20;99.90;;;;;;4990158;28;20460;-56
2022/05/25 06:27:15;;;;;;;7.18;1.80;;;23.70;99.90;;;;;;4989472;28;20383;-58
2022/05/25 06:29:43;;;;;;;7.20;1.88;;;22.40;99.90;;;;;;4990700;28;20387;-58
2022/05/25 06:32:12;;;;;;;6.70;1.67;;;21.70;99.90;;;;;;4989967;28;20445;-58
2022/05/25 06:34:39;;;;;;;6.88;1.70;;;21.70;99.90;;;;;;4990617;28;20375;-59
2022/05/25 06:37:05;;;;;;;5.28;1.40;;;21.10;99.90;;;;;;4989745;28;20387;-57
2022/05/25 06:39:37;;;;;;;8.10;1.70;;;20.60;99.90;;;;;;4989372;28;20408;-56
2022/05/25 06:42:04;;;;;;;6.33;1.90;;;20.70;99.90;;;;;;4989985;28;20418;-56
2022/05/25 06:44:31;;;;;;;8.98;1.60;;;20.60;99.90;;;;;;4989894;28;20481;-56
2022/05/25 06:46:56;;;;;;;6.60;1.60;;;20.40;99.90;;;;;;4990105;28;20821;-56
2022/05/25 06:49:22;;;;;;;7.30;1.60;;;20.10;99.90;;;;;;4989092;28;20418;-59
2022/05/25 06:51:47;;;;;;;7.67;1.60;;;20.80;99.90;;;;;;4990164;28;20469;-58
2022/05/25 06:54:15;;;;;;;5.93;1.50;;;21.40;99.90;;;;;;4989571;28;20383;-58
2022/05/25 06:56:41;;;;;;;5.32;1.27;;;22.00;99.90;;;;;;4990151;28;20386;-58
2022/05/25 06:59:07;;;;;;;7.18;1.40;;;22.50;99.90;;;;;;4989672;28;20898;-59
2022/05/25 07:01:34;;;;;;;6.70;2.00;;;22.90;99.90;;;;;;4990709;28;20422;-59
2022/05/25 07:04:00;;;;;;;6.13;1.60;;;22.70;99.90;;;;;;4993424;28;20382;-56
2022/05/25 07:06:26;;;;;;;5.88;1.83;;;23.50;99.90;;;;;;4992112;28;20445;-56
2022/05/25 07:08:52;;;;;;;5.75;2.10;;;24.60;99.90;;;;;;4993548;28;20460;-56
2022/05/25 07:11:18;;;;;;;6.10;2.85;;;25.20;99.90;;;;;;5009483;28;20861;-59
2022/05/25 07:13:44;;;;;;;6.90;3.25;;;25.90;99.90;;;;;;5007672;28;20382;-58
2022/05/25 07:16:13;;;;;;;6.60;4.00;;;;;;;;;;4992827;28;20437;-56
2022/05/25 07:18:39;;;;;;;6.50;4.95;;;27.70;99.90;;;;;;4992845;28;20735;-59
2022/05/25 07:21:08;;;;;;;6.70;4.80;;;27.90;99.90;;;;;;4992870;28;20478;-59
2022/05/25 07:23:35;;;;;;;6.60;3.60;;;27.30;99.90;;;;;;4992650;28;20485;-58
2022/05/25 07:26:01;;;;;;;6.63;3.80;;;26.80;99.90;;;;;;4993281;28;20383;-59
2022/05/25 07:28:26;;;;;;;6.20;4.72;;;27.00;99.90;;;;;;4992424;28;20378;-59
2022/05/25 07:31:06;;;;;;;7.03;4.55;;;27.50;99.90;;;;;;4993132;28;20422;-56
2022/05/25 07:33:34;;;;;;;7.60;4.22;;;28.60;99.90;;;;;;4992318;28;20477;-58
2022/05/25 07:36:00;;;;;;;10.38;4.30;;;28.00;99.90;;;;;;4992373;28;20409;-58
2022/05/25 07:38:28;;;;;;;7.35;4.90;;;27.30;99.90;;;;;;4991643;28;20864;-59
2022/05/25 07:40:55;;;;;;;8.50;4.47;;;27.00;99.90;;;;;;4992440;28;20397;-59
2022/05/25 07:43:23;;;;;;;7.30;4.05;;;27.30;99.90;;;;;;4991752;28;20922;-59
2022/05/25 07:45:49;;;;;;;7.03;4.93;;;27.50;99.90;;;;;;4992486;28;20387;-59
2022/05/25 07:48:15;;;;;;;7.50;5.20;;;28.20;99.90;;;;;;4991584;28;20412;-57
2022/05/25 07:50:42;;;;;;;6.60;4.35;;;28.90;99.90;;;;;;4992371;28;20442;-59
2022/05/25 07:55:56;;;;;;;6.40;4.80;;;27.80;99.90;;;;;;4992642;28;20386;-59
2022/05/25 07:58:22;;;;;;;9.02;4.50;;;27.90;99.90;;;;;;4974088;28;20383;-56
2022/05/25 08:00:51;;;;;;;7.78;4.00;;;28.90;99.90;;;;;;4992129;28;20391;-57
2022/05/25 08:06:01;;;;;;;6.57;4.30;;;28.40;99.90;;;;;;4992346;28;20441;-59
2022/05/25 08:08:27;;;;;;;6.25;5.28;;;28.00;99.90;;;;;;4991260;28;20521;-59
2022/05/25 08:11:02;;;;;;;6.40;5.03;;;27.60;99.90;;;;;;4991948;28;20830;-59
2022/05/25 08:13:30;;;;;;;6.15;5.55;;;27.90;99.90;;;;;;4990159;28;20654;-59
2022/05/25 08:15:56;;;;;;;7.95;4.90;;;27.90;99.90;;;;;;4992077;28;20394;-60
2022/05/25 08:18:22;;;;;;;7.85;4.90;;;28.30;99.90;;;;;;4991007;28;20389;-59
2022/05/25 08:20:48;;;;;;;8.60;5.07;;;28.30;99.90;;;;;;4992194;28;20729;-60
2022/05/25 08:23:15;;;;;;;6.40;5.03;;;28.50;99.90;;;;;;4990793;28;20413;-57
2022/05/25 08:25:42;;;;;;;6.75;4.55;;;28.90;99.90;;;;;;4992088;28;20406;-59
2022/05/25 08:28:08;;;;;;;6.20;5.10;;;29.00;99.90;;;;;;4991909;28;20387;-59
2022/05/25 08:30:37;;;;;;;8.10;4.35;;;27.80;99.90;;;;;;4991140;28;20393;-59
2022/05/25 08:33:03;;;;;;;6.40;5.63;;;27.50;99.90;;;;;;4991545;28;20393;-59
2022/05/25 08:35:30;;;;;;;7.97;6.05;;;27.20;99.90;;;;;;4991257;28;20387;-59
2022/05/25 08:37:57;;;;;;;7.40;5.60;;;26.70;99.90;;;;;;4991180;28;20394;-56
2022/05/25 08:40:24;;;;;;;8.52;5.50;;;24.60;99.90;;;;;;4990878;28;20390;-58
2022/05/25 08:42:54;;;;;;;7.90;6.30;;;23.70;99.90;;;;;;4991256;28;20415;-58
2022/05/25 08:45:24;;;;;;;8.20;5.72;;;23.70;99.90;;;;;;4990903;28;20456;-56
2022/05/25 08:47:58;;;;;;;7.00;5.10;;;25.60;99.90;;;;;;4991635;28;20485;-59
2022/05/25 08:50:24;;;;;;;8.00;6.13;;;26.90;99.90;;;;;;4990970;28;20413;-59
2022/05/25 08:52:53;;;;;;;7.32;4.82;;;28.50;99.90;;;;;;4991358;28;20464;-59
2022/05/25 08:56:16;;;;;;;5.72;4.25;;;29.00;99.90;;;;;;4990465;28;20485;-59
2022/05/25 08:59:21;;;;;;;6.50;4.28;;;29.60;99.90;;;;;;4911703;29;20401;-57
2022/05/25 09:01:58;;;;;;;8.57;4.57;;;30.10;99.90;;;;;;4966697;28;20844;-57
2022/05/25 09:04:39;;;;;;;7.17;5.37;;;30.60;99.90;;;;;;4990231;28;20450;-57
2022/05/25 09:07:26;;;;;;;7.87;4.90;;;31.40;99.90;;;;;;4991121;28;20449;-57
2022/05/25 09:09:53;;;;;;;6.80;5.30;;;31.80;99.90;;;;;;4995860;28;20413;-57
2022/05/25 09:12:31;;;;;;;6.50;4.97;;;30.40;99.90;;;;;;5009920;28;20495;-59
2022/05/25 09:15:08;;;;;;;6.53;5.60;;;27.90;99.90;;;;;;4995808;28;20417;-56
2022/05/25 09:17:44;;;;;;;6.40;5.00;;;25.70;99.90;;;;;;4990150;28;20393;-56
2022/05/25 09:20:14;;;;;;;7.27;4.90;;;26.20;99.90;;;;;;4990955;28;20869;-59
2022/05/25 09:22:41;;;;;;;6.65;5.70;;;28.10;99.90;;;;;;4990686;28;20509;-59
2022/05/25 09:25:11;;;;;;;7.10;4.70;;;29.50;99.90;;;;;;4990164;28;20841;-60
2022/05/25 09:27:41;;;;;;;7.20;5.50;;;28.90;99.90;;;;;;4989928;28;20876;-59
2022/05/25 09:30:08;;;;;;;8.27;5.10;;;28.60;99.90;;;;;;4990989;28;20433;-59
2022/05/25 09:32:51;;;;;;;6.93;4.85;;;28.10;99.90;;;;;;4989922;28;20382;-59
2022/05/25 09:35:20;;;;;;;6.10;4.70;;;27.50;99.90;;;;;;4989804;28;20491;-59
2022/05/25 09:37:57;;;;;;;5.63;4.15;;;28.20;99.90;;;;;;4973009;28;20402;-60
2022/05/25 09:40:31;;;;;;;7.10;5.38;;;28.40;99.90;;;;;;4989494;28;20391;-59
2022/05/25 09:42:57;;;;;;;6.97;4.88;;;28.40;99.90;;;;;;4990418;28;20528;-60
2022/05/25 09:45:42;;;;;;;6.70;4.38;;;29.20;99.90;;;;;;4989794;28;20438;-60
2022/05/25 09:48:26;;;;;;;6.47;5.30;;;29.30;99.90;;;;;;4990421;28;20393;-59
2022/05/25 09:50:59;;;;;;;7.20;5.70;;;27.20;99.90;;;;;;4990247;28;20378;-57
2022/05/25 09:53:43;;;;;;;7.30;5.85;;;26.00;99.90;;;;;;4989378;28;20378;-57
2022/05/25 09:56:28;;;;;;;7.03;5.20;;;25.60;99.90;;;;;;4990207;28;20394;-57
2022/05/25 09:58:58;;;;;;;7.35;6.55;;;26.10;99.90;;;;;;4990204;28;20876;-57
2022/05/25 10:01:32;;;;;;;8.70;4.70;;;26.90;99.90;;;;;;4989134;28;20469;-61
2022/05/25 10:03:59;;;;;;;8.98;6.40;;;27.50;99.90;;;;;;4989734;28;20772;-59
2022/05/25 10:06:34;;;;;;;7.03;5.38;;;27.60;99.90;;;;;;4989339;28;20472;-60
2022/05/25 10:09:08;;;;;;;6.90;4.90;;;28.10;99.90;;;;;;4990316;28;20407;-59
2022/05/25 10:11:45;;;;;;;6.30;4.20;;;28.80;99.90;;;;;;4972007;28;20426;-60
2022/05/25 10:14:29;;;;;;;7.20;5.27;;;28.80;99.90;;;;;;4981291;28;20389;-59
2022/05/25 10:17:06;;;;;;;7.20;4.80;;;28.40;99.90;;;;;;4970489;28;20389;-59
2022/05/25 10:19:36;;;;;;;7.00;4.82;;;29.00;99.90;;;;;;4970018;28;21069;-59
2022/05/25 10:22:02;;;;;;;7.32;4.85;;;29.00;99.90;;;;;;4970925;28;20424;-59
2022/05/25 10:24:41;;;;;;;6.55;4.25;;;28.30;99.90;;;;;;4970112;28;20474;-59
2022/05/25 10:27:22;;;;;;;8.00;5.10;;;27.80;99.90;;;;;;4970700;28;20459;-59
2022/05/25 10:38:27;;;;;;;6.60;5.80;;;26.50;99.90;;;;;;4973609;28;20762;-56
2022/05/25 10:40:54;;;;;;;7.97;5.30;;;25.90;99.90;;;;;;4974323;28;20396;-57
2022/05/25 10:43:29;;;;;;;6.20;5.40;;;25.80;99.90;;;;;;4973270;28;20424;-56
2022/05/25 10:45:59;;;;;;;7.10;5.60;;;26.10;99.90;;;;;;4973930;28;20395;-57
2022/05/25 10:48:53;;;;;;;6.30;5.35;;;25.50;99.90;;;;;;4973424;28;20388;-57
2022/05/25 10:51:33;;;;;;;7.37;5.50;;;24.70;99.90;;;;;;4971176;28;20455;-56
2022/05/25 10:57:27;;;;;;;7.20;5.73;;;24.30;99.90;;;;;;4973553;28;20379;-56
2022/05/25 11:00:14;;;;;;;6.63;5.93;;;25.40;99.90;;;;;;4973908;28;20384;-57
2022/05/25 11:03:07;;;;;;;5.93;4.43;;;25.40;99.90;;;;;;4973447;28;20443;-57
2022/05/25 11:05:41;;;;;;;6.57;5.05;;;25.60;99.90;;;;;;4972961;28;20393;-57
2022/05/25 11:08:14;;;;;;;6.60;5.10;;;25.50;99.90;;;;;;4973791;28;20404;-57
2022/05/25 11:11:12;;;;;;;8.10;4.80;;;25.00;99.90;;;;;;4985599;28;20505;-56
2022/05/25 11:13:53;;;;;;;6.10;4.97;;;24.60;99.90;;;;;;4992319;28;20474;-56
2022/05/25 11:16:29;;;;;;;6.80;4.60;;;24.90;99.90;;;;;;4992565;28;20390;-57
2022/05/25 11:18:57;;;;;;;6.03;5.15;;;24.90;99.90;;;;;;4992910;28;20421;-57
2022/05/25 11:21:48;;;;;;;7.35;4.55;;;24.50;99.90;;;;;;4991885;28;20481;-57
2022/05/25 11:24:26;;;;;;;6.50;4.68;;;24.00;99.90;;;;;;4992595;28;20933;-54
2022/05/25 11:27:12;;;;;;;6.10;4.50;;;24.70;99.90;;;;;;4992884;28;20510;-57
2022/05/25 11:29:52;;;;;;;6.60;5.38;;;25.40;99.90;;;;;;4990895;28;20809;-57
2022/05/25 11:32:39;;;;;;;6.30;5.30;;;24.70;99.90;;;;;;4992414;28;20879;-56
2022/05/25 11:35:39;;;;;;;6.80;5.10;;;24.60;99.90;;;;;;4992835;28;20466;-56
2022/05/25 11:38:18;;;;;;;6.20;5.03;;;24.80;99.90;;;;;;4992446;28;20473;-57
2022/05/25 11:41:16;;;;;;;6.47;5.40;;;24.50;99.90;;;;;;4992701;28;20397;-57
2022/05/25 11:44:05;;;;;;;7.00;4.47;;;23.90;99.90;;;;;;4974966;28;20414;-60
2022/05/25 11:46:42;;;;;;;6.10;4.73;;;23.70;99.90;;;;;;4991595;28;20401;-59
2022/05/25 11:49:20;;;;;;;7.30;4.75;;;24.10;99.90;;;;;;4992329;28;20394;-58
2022/05/25 11:51:57;;;;;;;6.60;5.30;;;24.60;99.90;;;;;;4992290;28;20891;-58
2022/05/25 11:54:38;;;;;;;7.18;5.00;;;24.30;99.90;;;;;;4991430;28;20415;-57
2022/05/25 11:57:29;;;;;;;6.70;5.30;;;24.50;99.90;;;;;;4992443;28;20744;-57
2022/05/25 12:00:12;;;;;;;9.20;6.00;;;24.30;99.90;;;;;;4991004;28;20796;-58
2022/05/25 12:03:07;;;;;;;7.00;5.30;;;24.20;99.90;;;;;;4991676;28;20433;-58
2022/05/25 12:05:52;;;;;;;6.35;5.53;;;23.90;99.90;;;;;;4991056;28;21258;-57
2022/05/25 12:08:27;;;;;;;8.25;5.32;;;23.60;99.90;;;;;;4991253;28;20402;-54
2022/05/25 12:11:12;;;;;;;6.47;5.20;;;23.90;99.90;;;;;;4992117;28;20415;-58
2022/05/25 12:13:47;;;;;;;6.00;4.60;;;24.00;99.90;;;;;;4995172;28;20377;-58
2022/05/25 12:16:23;;;;;;;6.20;4.90;;;24.40;99.90;;;;;;5011791;28;20468;-57
2022/05/25 12:19:11;;;;;;;6.43;5.00;;;23.90;99.90;;;;;;5011609;28;20389;-57
2022/05/25 12:21:45;;;;;;;6.20;5.00;;;23.80;99.90;;;;;;5010896;28;20647;-59
2022/05/25 12:24:15;;;;;;;6.50;4.80;;;24.30;99.90;;;;;;5011780;28;20393;-58
2022/05/25 12:26:42;;;;;;;6.38;4.93;;;24.60;99.90;;;;;;5010911;28;20909;-59
2022/05/25 12:29:34;;;;;;;5.77;4.63;;;24.30;99.90;;;;;;5011296;28;20385;-58
2022/05/25 12:32:00;;;;;;;5.90;4.80;;;24.10;99.90;;;;;;5011452;28;20396;-58
2022/05/25 12:34:35;;;;;;;8.17;4.83;;;24.40;99.90;;;;;;5010624;28;20392;-58
2022/05/25 12:37:03;;;;;;;6.40;5.20;;;24.10;99.90;;;;;;5011381;28;20381;-58
2022/05/25 12:39:47;;;;;;;6.40;4.90;;;23.90;99.90;;;;;;5010604;28;20396;-58
2022/05/25 12:42:25;;;;;;;7.40;5.50;;;24.30;99.90;;;;;;5011080;28;20503;-58
2022/05/25 12:50:48;;;;;;;6.28;4.60;;;24.50;99.90;;;;;;5010400;28;20444;-58
2022/05/25 12:53:35;;;;;;;7.10;5.50;;;24.90;99.90;;;;;;5011222;28;20433;-58
2022/05/25 12:56:18;;;;;;;6.60;4.90;;;24.70;99.90;;;;;;5010705;28;20475;-58
2022/05/25 12:58:43;;;;;;;6.30;5.25;;;24.60;99.90;;;;;;5010241;28;20381;-58
2022/05/25 13:01:29;;;;;;;5.97;4.80;;;24.00;99.90;;;;;;5010715;28;20400;-57
2022/05/25 13:03:55;;;;;;;7.60;4.90;;;24.10;99.90;;;;;;5010819;28;20476;-58
2022/05/25 13:06:22;;;;;;;6.43;4.72;;;24.10;99.90;;;;;;5009975;28;20472;-58
2022/05/25 13:08:48;;;;;;;6.20;5.10;;;24.30;99.90;;;;;;5011151;28;20462;-58
2022/05/25 13:11:32;;;;;;;7.55;5.20;;;24.50;99.90;;;;;;4993792;28;20414;-58
2022/05/25 13:14:20;;;;;;;6.53;4.70;;;24.20;99.90;;;;;;4983741;28;20393;-58
2022/05/25 13:16:46;;;;;;;6.07;4.87;;;24.40;99.90;;;;;;4931110;28;20404;-58
2022/05/25 13:19:32;;;;;;;6.32;4.75;;;24.70;99.90;;;;;;4971413;28;20388;-58
2022/05/25 13:22:05;;;;;;;6.25;5.22;;;24.90;99.90;;;;;;4957607;28;20486;-58
2022/05/25 13:25:01;;;;;;;6.80;5.18;;;24.70;99.90;;;;;;4970770;28;20917;-57
2022/05/25 13:27:46;;;;;;;7.20;5.20;;;24.70;99.90;;;;;;4969554;28;20501;-58
2022/05/25 13:30:35;;;;;;;7.68;5.40;;;24.50;99.90;;;;;;4971105;28;20400;-58
2022/05/25 13:33:13;;;;;;;6.25;5.65;;;24.10;99.90;;;;;;4971197;28;20396;-57
2022/05/25 13:35:57;;;;;;;7.70;6.00;;;24.00;99.90;;;;;;4970651;28;20384;-58
2022/05/25 13:38:38;;;;;;;6.40;5.30;;;23.90;99.90;;;;;;4970486;28;20403;-58
2022/05/25 13:41:18;;;;;;;9.77;5.60;;;23.80;99.90;;;;;;4971147;28;20491;-58
2022/05/25 13:43:59;;;;;;;6.70;5.10;;;23.70;99.90;;;;;;4971200;28;20505;-57
2022/05/25 13:46:31;;;;;;;6.55;4.90;;;23.50;99.90;;;;;;4970337;28;20388;-58
2022/05/25 13:48:57;;;;;;;7.50;4.93;;;23.00;99.90;;;;;;4971241;28;20423;-58